Time;durP1;ratioP1;P1;durP2;ratioP2;P2;SDS_P1;SDS_P2;PMS_P1;PMS_P2;Temp;Humidity;BMP_temperature;BMP_pressure;BME280_temperature;BME280_humidity;BME280_pressure;Samples;Min_cycle;Max_cycle;Signal;HPM_P1;HPM_P2
2021/11/01 00:01:57;;;;;;;19.80;10.73;;;;;;;;;;4974297;28;20031;-85
2021/11/01 00:04:23;;;;;;;24.38;10.95;;;;;;;;;;4992681;28;20094;-85
2021/11/01 00:06:49;;;;;;;24.30;11.95;;;;;;;;;;4974148;28;20137;-86
2021/11/01 00:09:15;;;;;;;21.83;12.02;;;;;;;;;;4977860;28;20088;-85
2021/11/01 00:11:41;;;;;;;23.58;12.07;;;;;;;;;;4990893;28;20413;-86
2021/11/01 00:14:07;;;;;;;19.95;11.65;;;;;;;;;;4991253;28;20033;-85
2021/11/01 00:16:33;;;;;;;26.17;13.00;;;;;;;;;;4987738;28;20038;-85
2021/11/01 00:18:59;;;;;;;25.27;13.07;;;;;;;;;;4976983;28;20045;-86
2021/11/01 00:21:26;;;;;;;20.15;11.38;;;;;;;;;;4997246;28;20030;-86
2021/11/01 00:23:52;;;;;;;20.20;11.25;;;;;;;;;;4979355;28;20034;-85
2021/11/01 00:26:18;;;;;;;24.70;13.20;;;;;;;;;;4994415;28;20137;-84
2021/11/01 00:28:45;;;;;;;26.40;12.07;;;;;;;;;;4986754;28;20118;-84
2021/11/01 00:31:12;;;;;;;27.23;13.32;;;;;;;;;;4991533;28;20031;-85
2021/11/01 00:33:38;;;;;;;25.92;13.45;;;;;;;;;;4982367;28;20039;-85
2021/11/01 00:36:05;;;;;;;24.42;12.98;;;;;;;;;;4994363;28;20054;-85
2021/11/01 00:38:31;;;;;;;26.75;12.25;;;;;;;;;;4978339;28;20042;-85
2021/11/01 00:40:57;;;;;;;22.10;11.80;;;;;;;;;;4990299;28;20198;-85
2021/11/01 00:43:23;;;;;;;24.00;12.20;;;;;;;;;;4989227;28;20034;-84
2021/11/01 00:45:49;;;;;;;24.33;12.55;;;;;;;;;;4985890;28;20613;-85
2021/11/01 00:48:17;;;;;;;25.13;12.68;;;;;;;;;;4976896;28;20394;-85
2021/11/01 00:50:44;;;;;;;25.27;12.65;;;;;;;;;;4992843;28;20030;-85
2021/11/01 00:53:10;;;;;;;21.08;12.02;;;;;;;;;;4991331;28;20030;-84
2021/11/01 00:55:47;;;;;;;22.67;13.30;;;;;;;;;;4994186;28;20383;-84
2021/11/01 00:58:13;;;;;;;24.67;13.07;;;;;;;;;;4988564;28;20505;-84
2021/11/01 01:00:39;;;;;;;23.33;12.80;;;;;;;;;;4986551;28;20062;-85
2021/11/01 01:03:06;;;;;;;25.83;12.25;;;;;;;;;;4993098;28;20390;-84
2021/11/01 01:05:32;;;;;;;24.05;12.45;;;;;;;;;;4991018;28;20045;-85
2021/11/01 01:07:58;;;;;;;24.92;12.60;;;;;;;;;;4990245;28;20080;-84
2021/11/01 01:10:24;;;;;;;22.65;12.18;;;;;;;;;;4989815;28;20495;-84
2021/11/01 01:12:50;;;;;;;27.08;13.30;;;;;;;;;;4987546;28;20054;-84
2021/11/01 01:15:22;;;;;;;25.75;13.98;;;;;;;;;;4969199;28;20558;-85
2021/11/01 01:17:48;;;;;;;26.98;13.93;;;;;;;;;;4992416;28;20475;-84
2021/11/01 01:20:18;;;;;;;24.10;12.77;;;;;;;;;;4989959;28;20042;-84
2021/11/01 01:22:44;;;;;;;27.58;13.88;;;;;;;;;;4973212;28;20113;-84
2021/11/01 01:25:21;;;;;;;23.95;12.77;;;;;;;;;;4976932;28;20037;-84
2021/11/01 01:27:49;;;;;;;24.35;12.85;;;;;;;;;;4992346;28;21243;-84
2021/11/01 01:30:15;;;;;;;26.92;13.57;;;;;;;;;;4989888;28;20026;-84
2021/11/01 01:32:41;;;;;;;28.55;14.05;;;;;;;;;;4991817;28;20030;-84
2021/11/01 01:35:08;;;;;;;28.45;12.85;;;;;;;;;;4991312;28;20084;-84
2021/11/01 01:37:34;;;;;;;26.83;14.05;;;;;;;;;;4985568;28;20443;-85
2021/11/01 01:40:00;;;;;;;27.50;13.05;;;;;;;;;;4975390;28;20030;-84
2021/11/01 01:42:26;;;;;;;28.25;14.05;;;;;;;;;;4989810;28;20037;-84
2021/11/01 01:44:52;;;;;;;27.48;14.43;;;;;;;;;;4987265;28;20027;-84
2021/11/01 01:47:18;;;;;;;24.80;12.75;;;;;;;;;;4967951;28;20041;-84
2021/11/01 01:49:44;;;;;;;30.15;13.70;;;;;;;;;;4988797;28;20041;-84
2021/11/01 01:52:10;;;;;;;24.27;12.77;;;;;;;;;;4990968;28;20054;-84
2021/11/01 01:54:36;;;;;;;23.17;12.55;;;;;;;;;;4994470;28;20170;-84
2021/11/01 01:57:03;;;;;;;26.92;12.85;;;;;;;;;;4986021;28;20038;-85
2021/11/01 01:59:29;;;;;;;27.17;14.23;;;;;;;;;;4998192;28;20030;-85
2021/11/01 02:01:56;;;;;;;27.80;14.02;;;;;;;;;;4993433;28;20041;-85
2021/11/01 02:04:24;;;;;;;26.52;13.05;;;;;;;;;;4992833;28;20386;-84
2021/11/01 02:06:53;;;;;;;27.83;13.63;;;;;;;;;;4990625;28;20026;-84
2021/11/01 02:09:25;;;;;;;26.48;13.73;;;;;;;;;;4987642;28;20033;-85
2021/11/01 02:11:55;;;;;;;26.75;13.68;;;;;;;;;;4979570;28;20039;-84
2021/11/01 02:14:23;;;;;;;25.10;12.75;;;;;;;;;;4989045;28;20125;-84
2021/11/01 02:16:50;;;;;;;25.25;13.85;;;;;;;;;;4976266;28;20076;-85
2021/11/01 02:19:22;;;;;;;27.13;13.02;;;;;;;;;;4991988;28;20034;-85
2021/11/01 02:21:59;;;;;;;25.92;13.73;;;;;;;;;;4989429;28;20034;-85
2021/11/01 02:24:34;;;;;;;29.13;14.10;;;;;;;;;;4983909;28;20030;-84
2021/11/01 02:27:00;;;;;;;27.40;14.27;;;;;;;;;;4985934;28;20061;-85
2021/11/01 02:29:28;;;;;;;25.92;13.65;;;;;;;;;;4980799;28;20145;-84
2021/11/01 02:31:54;;;;;;;25.73;14.13;;;;;;;;;;4976488;28;20033;-84
2021/11/01 02:34:21;;;;;;;26.90;13.80;;;;;;;;;;4990934;28;20390;-84
2021/11/01 02:36:47;;;;;;;29.83;14.35;;;;;;;;;;4978320;28;20031;-84
2021/11/01 02:39:14;;;;;;;28.77;14.20;;;;;;;;;;4982511;28;20027;-84
2021/11/01 02:41:41;;;;;;;25.85;14.38;;;;;;;;;;4984121;28;20076;-84
2021/11/01 02:44:08;;;;;;;27.40;13.88;;;;;;;;;;4990757;28;20019;-84
2021/11/01 02:46:34;;;;;;;26.40;14.30;;;;;;;;;;4990881;28;20487;-84
2021/11/01 02:49:01;;;;;;;27.52;14.07;;;;;;;;;;4989620;28;20033;-84
2021/11/01 02:51:28;;;;;;;27.73;13.45;;;;;;;;;;4975720;28;20466;-84
2021/11/01 02:53:56;;;;;;;25.30;13.90;;;;;;;;;;4991386;28;20042;-84
2021/11/01 02:56:22;;;;;;;24.75;12.88;;;;;;;;;;4980408;28;20102;-84
2021/11/01 02:58:48;;;;;;;29.60;13.27;;;;;;;;;;4990271;28;20041;-85
2021/11/01 03:01:18;;;;;;;28.15;14.57;;;;;;;;;;4990132;28;20030;-85
2021/11/01 03:03:44;;;;;;;25.80;13.55;;;;;;;;;;4990275;28;20549;-84
2021/11/01 03:06:11;;;;;;;27.25;13.50;;;;;;;;;;4974303;28;20054;-84
2021/11/01 03:08:38;;;;;;;26.42;13.93;;;;;;;;;;4992268;28;20065;-84
2021/11/01 03:11:04;;;;;;;28.52;13.73;;;;;;;;;;4975534;28;20121;-84
2021/11/01 03:13:32;;;;;;;27.45;13.75;;;;;;;;;;4989010;28;20423;-84
2021/11/01 03:15:59;;;;;;;26.73;13.80;;;;;;;;;;4993887;28;20582;-84
2021/11/01 03:18:29;;;;;;;29.17;14.43;;;;;;;;;;4988932;28;20039;-84
2021/11/01 03:20:56;;;;;;;27.73;13.18;;;;;;;;;;4990822;28;20061;-84
2021/11/01 03:23:26;;;;;;;26.20;13.93;;;;;;;;;;4994636;28;20434;-84
2021/11/01 03:25:54;;;;;;;26.15;13.35;;;;;;;;;;4986261;28;20058;-84
2021/11/01 03:28:21;;;;;;;30.58;14.82;;;;;;;;;;4990979;28;20094;-85
2021/11/01 03:30:48;;;;;;;33.72;16.05;;;;;;;;;;4986609;28;20121;-84
2021/11/01 03:33:15;;;;;;;26.75;13.70;;;;;;;;;;4973577;28;20113;-84
2021/11/01 03:35:42;;;;;;;27.17;14.35;;;;;;;;;;4987498;28;20054;-84
2021/11/01 03:38:10;;;;;;;26.08;13.75;;;;;;;;;;4984543;28;20042;-84
2021/11/01 03:40:37;;;;;;;27.58;14.02;;;;;;;;;;4991195;28;20073;-84
2021/11/01 03:43:05;;;;;;;27.65;14.25;;;;;;;;;;4992017;28;20106;-84
2021/11/01 03:45:33;;;;;;;29.92;14.02;;;;;;;;;;4989494;28;20505;-84
2021/11/01 03:48:08;;;;;;;27.77;14.15;;;;;;;;;;4987105;28;20096;-84
2021/11/01 03:53:04;;;;;;;27.48;15.55;;;;;;;;;;4991848;28;20049;-84
2021/11/01 03:55:30;;;;;;;27.05;14.50;;;;;;;;;;4987803;28;20034;-84
2021/11/01 03:57:59;;;;;;;27.92;14.70;;;;;;;;;;4971782;28;20023;-84
2021/11/01 04:00:27;;;;;;;26.50;15.10;;;;;;;;;;4983869;28;20026;-84
2021/11/01 04:02:54;;;;;;;30.50;14.63;;;;;;;;;;4991572;28;20030;-84
2021/11/01 04:05:20;;;;;;;25.90;13.82;;;;;;;;;;4987841;28;20389;-84
2021/11/01 04:07:46;;;;;;;28.20;14.07;;;;;;;;;;4970626;28;20113;-84
2021/11/01 04:10:14;;;;;;;25.25;14.70;;;;;;;;;;4987161;28;20023;-84
2021/11/01 04:12:41;;;;;;;26.42;14.68;;;;;;;;;;4985746;28;20532;-84
2021/11/01 04:15:14;;;;;;;26.38;14.30;;;;;;;;;;4975583;28;20035;-84
2021/11/01 04:17:52;;;;;;;31.17;15.30;;;;;;;;;;4982405;28;20026;-84
2021/11/01 04:22:51;;;;;;;29.70;14.13;;;;;;;;;;4990623;28;20490;-85
2021/11/01 04:25:19;;;;;;;;;;;;;;;;;;4984312;28;20022;-84
2021/11/01 04:27:46;;;;;;;29.27;14.98;;;;;;;;;;4975467;28;20384;-84
2021/11/01 04:30:12;;;;;;;25.35;13.90;;;;;;;;;;4989335;28;20940;-84
2021/11/01 04:32:40;;;;;;;34.55;15.68;;;;;;;;;;4984062;28;20109;-84
2021/11/01 04:35:14;;;;;;;32.33;16.38;;;;;;;;;;4988799;28;20038;-84
2021/11/01 04:37:43;;;;;;;35.58;16.23;;;;;;;;;;4974933;28;20076;-84
2021/11/01 04:40:19;;;;;;;27.27;14.57;;;;;;;;;;4989160;28;20034;-84
2021/11/01 04:43:05;;;;;;;25.40;14.13;;;;;;;;;;4976870;28;20035;-84
2021/11/01 04:54:03;;;;;;;29.80;15.48;;;;;;;;;;4990707;28;20608;-84
2021/11/01 04:56:29;;;;;;;30.15;14.95;;;;;;;;;;4974911;28;20113;-83
2021/11/01 04:58:56;;;;;;;29.60;14.27;;;;;;;;;;4992049;28;20386;-82
2021/11/01 05:01:29;;;;;;;29.92;15.40;;;;;;;;;;4977840;28;20027;-85
2021/11/01 05:03:58;;;;;;;32.67;15.07;;;;;;;;;;4991182;28;20019;-80
2021/11/01 05:06:26;;;;;;;28.58;15.32;;;;;;;;;;4990042;28;20023;-81
2021/11/01 05:09:07;;;;;;;31.10;14.15;;;;;;;;;;4978101;28;20089;-84
2021/11/01 05:11:55;;;;;;;29.27;14.70;;;;;;;;;;4992708;28;20486;-84
2021/11/01 05:14:29;;;;;;;32.35;16.15;;;;;;;;;;4989802;28;20038;-83
2021/11/01 05:19:51;;;;;;;30.42;14.27;;;;;;;;;;4989096;28;20099;-83
2021/11/01 05:24:56;;;;;;;27.77;14.13;;;;;;;;;;4985914;28;20118;-84
2021/11/01 05:29:53;;;;;;;27.50;14.32;;;;;;;;;;4990332;28;20042;-85
2021/11/01 05:32:23;;;;;;;30.35;14.63;;;;;;;;;;4993141;28;20034;-86
2021/11/01 05:34:50;;;;;;;28.63;14.18;;;;;;;;;;4977422;28;20041;-86
2021/11/01 05:37:16;;;;;;;31.08;15.93;;;;;;;;;;4988520;28;20409;-85
2021/11/01 05:39:42;;;;;;;25.90;13.88;;;;;;;;;;4991508;28;20042;-86
2021/11/01 05:42:09;;;;;;;25.25;12.65;;;;;;;;;;4985146;28;20034;-87
2021/11/01 05:44:35;;;;;;;28.75;13.95;;;;;;;;;;4978834;28;20033;-87
2021/11/01 05:47:04;;;;;;;30.73;14.82;;;;;;;;;;4993536;28;20545;-86
2021/11/01 05:49:30;;;;;;;30.60;15.30;;;;;;;;;;4987114;28;20061;-86
2021/11/01 05:51:56;;;;;;;27.08;14.32;;;;;;;;;;4988431;28;20062;-86
2021/11/01 05:54:26;;;;;;;28.85;14.77;;;;;;;;;;4989455;28;20038;-86
2021/11/01 05:57:11;;;;;;;28.27;14.40;;;;;;;;;;4991231;28;20040;-86
2021/11/01 05:59:58;;;;;;;25.75;13.85;;;;;;;;;;4973653;28;20486;-85
2021/11/01 06:02:36;;;;;;;27.77;13.98;;;;;;;;;;4985723;28;20037;-86
2021/11/01 06:05:12;;;;;;;27.27;14.05;;;;;;;;;;4988331;28;20038;-86
2021/11/01 06:10:35;;;;;;;28.42;14.60;;;;;;;;;;4993859;28;20042;-85
2021/11/01 06:15:47;;;;;;;28.60;15.18;;;;;;;;;;4990400;28;20038;-83
2021/11/01 06:18:13;;;;;;;32.08;14.13;;;;;;;;;;4977522;28;20033;-84
2021/11/01 06:20:39;;;;;;;26.33;14.02;;;;;;;;;;4977084;28;20120;-85
2021/11/01 06:23:05;;;;;;;32.75;15.55;;;;;;;;;;4989905;28;20542;-86
2021/11/01 06:25:31;;;;;;;27.38;14.50;;;;;;;;;;4989277;28;20034;-83
2021/11/01 06:27:57;;;;;;;28.75;14.82;;;;;;;;;;4985957;28;20046;-84
2021/11/01 06:30:29;;;;;;;31.10;15.45;;;;;;;;;;4975321;28;20026;-85
2021/11/01 06:41:30;;;;;;;31.70;15.07;;;;;;;;;;4987922;28;20042;-83
2021/11/01 06:44:17;;;;;;;26.55;14.13;;;;;;;;;;4986640;28;20030;-85
2021/11/01 07:16:21;;;;;;;26.63;12.70;;;;;;;;;;4988234;28;20425;-84
2021/11/01 08:21:49;;;;;;;25.27;12.98;;;;;;;;;;4986136;28;20432;-87
2021/11/01 08:27:23;;;;;;;21.48;12.35;;;;;;;;;;4982167;28;20406;-84
2021/11/01 08:30:06;;;;;;;26.60;13.55;;;;;;;;;;4982466;28;20471;-87
2021/11/01 08:38:43;;;;;;;26.52;13.50;;;;;;;;;;4981850;28;20254;-84
2021/11/01 08:43:43;;;;;;;26.25;13.60;;;;;;;;;;4987062;28;20027;-84
2021/11/01 08:49:12;;;;;;;28.85;13.90;;;;;;;;;;4989357;28;20096;-86
2021/11/01 09:08:10;;;;;;;22.70;12.52;;;;;;;;;;4992026;28;20041;-86
2021/11/01 09:11:12;;;;;;;25.08;12.32;;;;;;;;;;4982379;28;20022;-86
2021/11/01 09:18:43;;;;;;;25.15;11.70;;;;;;;;;;4992727;28;20173;-86
2021/11/01 09:19:49;;;;;;;24.05;12.23;;;;;;;;;;4997401;28;20789;-86
2021/11/01 09:22:51;;;;;;;23.88;12.38;;;;;;;;;;4960058;28;20034;-87
2021/11/01 09:26:04;;;;;;;24.42;13.05;;;;;;;;;;4993487;28;20030;-87
2021/11/01 09:35:42;;;;;;;21.63;10.98;;;;;;;;;;4985998;28;20058;-86
2021/11/01 09:36:19;;;;;;;18.92;10.88;;;;;;;;;;4980201;28;20061;-87
2021/11/01 09:38:58;;;;;;;18.55;9.45;;;;;;;;;;4985054;28;20034;-87
2021/11/01 09:41:25;;;;;;;23.45;10.75;;;;;;;;;;4992126;28;20038;-86
2021/11/01 09:43:52;;;;;;;19.65;10.02;;;;;;;;;;4992774;28;20038;-86
2021/11/01 09:46:21;;;;;;;20.75;9.98;;;;;;;;;;4990536;28;20025;-86
2021/11/01 09:49:03;;;;;;;18.38;9.60;;;;;;;;;;4983731;28;20066;-86
2021/11/01 09:51:30;;;;;;;16.90;8.80;;;;;;;;;;4979094;28;20031;-86
2021/11/01 09:53:56;;;;;;;18.77;10.02;;;;;;;;;;4989625;28;20031;-86
2021/11/01 09:56:41;;;;;;;16.88;8.55;;;;;;;;;;4989462;28;20027;-85
2021/11/01 09:59:14;;;;;;;17.88;9.75;;;;;;;;;;4982972;28;20423;-85
2021/11/01 10:01:41;;;;;;;18.50;8.80;;;;;;;;;;4973925;28;20030;-85
2021/11/01 10:04:18;;;;;;;18.50;8.85;;;;;;;;;;4975972;28;20026;-85
2021/11/01 10:06:49;;;;;;;17.05;9.07;;;;;;;;;;4991776;28;20318;-86
2021/11/01 10:09:15;;;;;;;18.42;9.25;;;;;;;;;;4976939;28;20037;-85
2021/11/01 10:11:44;;;;;;;14.82;8.18;;;;;;;;;;4979090;28;20022;-85
2021/11/01 10:14:10;;;;;;;13.57;7.13;;;;;;;;;;4990695;28;20027;-86
2021/11/01 10:19:30;;;;;;;16.27;8.55;;;;;;;;;;4992845;28;20040;-86
2021/11/01 10:21:59;;;;;;;18.23;8.77;;;;;;;;;;4982113;28;20039;-87
2021/11/01 10:24:27;;;;;;;17.63;8.40;;;;;;;;;;4976433;28;20038;-85
2021/11/01 10:26:54;;;;;;;15.40;7.57;;;;;;;;;;4986025;28;20054;-87
2021/11/01 10:29:21;;;;;;;18.55;7.55;;;;;;;;;;4976889;28;20519;-88
2021/11/01 10:31:47;;;;;;;16.90;7.82;;;;;;;;;;4989278;28;20113;-85
2021/11/01 10:34:14;;;;;;;19.42;8.00;;;;;;;;;;4991232;28;20026;-85
2021/11/01 10:36:41;;;;;;;16.45;7.57;;;;;;;;;;4975725;28;20036;-85
2021/11/01 10:39:12;;;;;;;22.40;7.78;;;;;;;;;;4971788;28;20499;-85
2021/11/01 10:41:54;;;;;;;14.10;6.95;;;;;;;;;;4992094;28;20026;-85
2021/11/01 10:45:00;;;;;;;15.70;7.13;;;;;;;;;;4986068;28;20026;-86
2021/11/01 10:47:59;;;;;;;13.60;6.20;;;;;;;;;;4957034;28;20019;-86
2021/11/01 10:59:13;;;;;;;14.05;6.20;;;;;;;;;;4981643;28;20061;-86
2021/11/01 11:13:14;;;;;;;12.63;6.05;;;;;;;;;;4990348;28;20593;-87
2021/11/01 11:15:42;;;;;;;11.73;6.20;;;;;;;;;;4974155;28;20030;-85
2021/11/01 11:20:54;;;;;;;13.00;7.00;;;;;;;;;;4994371;28;20279;-86
2021/11/01 11:42:53;;;;;;;11.90;6.30;;;;;;;;;;4983145;28;20043;-87
2021/11/01 11:48:23;;;;;;;18.90;6.72;;;;;;;;;;4983087;28;20049;-88
2021/11/01 11:50:50;;;;;;;16.50;7.05;;;;;;;;;;4974345;28;20026;-87
2021/11/01 11:53:18;;;;;;;18.73;7.70;;;;;;;;;;4990937;28;20038;-87
2021/11/01 11:55:46;;;;;;;15.77;8.18;;;;;;;;;;4988152;28;20034;-88
2021/11/01 11:58:14;;;;;;;13.45;6.82;;;;;;;;;;4990703;28;20037;-88
2021/11/01 12:00:41;;;;;;;13.63;7.40;;;;;;;;;;4993727;28;20033;-88
2021/11/01 12:03:09;;;;;;;16.40;6.97;;;;;;;;;;4994374;28;20030;-85
2021/11/01 12:05:43;;;;;;;16.02;7.55;;;;;;;;;;4987428;28;20025;-85
2021/11/01 12:19:06;;;;;;;14.57;7.53;;;;;;;;;;4991626;28;20060;-86
2021/11/01 12:21:34;;;;;;;13.05;6.93;;;;;;;;;;4993778;28;20030;-85
2021/11/01 12:24:00;;;;;;;15.57;7.40;;;;;;;;;;4990810;28;20509;-86
2021/11/01 12:26:27;;;;;;;12.57;6.65;;;;;;;;;;4990794;28;20178;-86
2021/11/01 12:28:57;;;;;;;15.10;7.55;;;;;;;;;;4990940;28;20030;-86
2021/11/01 12:31:24;;;;;;;15.73;7.18;;;;;;;;;;4985124;28;20413;-86
2021/11/01 12:34:11;;;;;;;11.73;6.18;;;;;;;;;;4974686;28;20069;-86
2021/11/01 12:36:57;;;;;;;15.60;7.90;;;;;;;;;;4985222;28;20026;-85
2021/11/01 12:39:35;;;;;;;15.05;6.82;;;;;;;;;;4992464;28;20026;-85
2021/11/01 12:42:14;;;;;;;12.80;6.90;;;;;;;;;;4991651;28;20022;-84
2021/11/01 12:45:38;;;;;;;11.48;6.53;;;;;;;;;;4987462;28;20360;-86
2021/11/01 12:58:21;;;;;;;10.60;5.95;;;;;;;;;;4995457;28;20128;-84
2021/11/01 13:00:47;;;;;;;13.23;6.25;;;;;;;;;;4996002;28;20030;-83
2021/11/01 13:03:15;;;;;;;13.80;6.20;;;;;;;;;;4978662;28;20034;-83
2021/11/01 13:05:58;;;;;;;11.75;6.47;;;;;;;;;;4999149;28;20805;-83
2021/11/01 13:08:28;;;;;;;16.17;6.43;;;;;;;;;;4995061;28;20022;-84
2021/11/01 13:10:57;;;;;;;12.48;6.28;;;;;;;;;;4992759;28;20018;-87
2021/11/01 13:19:08;;;;;;;13.02;7.38;;;;;;;;;;4984159;28;20037;-86
2021/11/01 13:21:41;;;;;;;11.85;6.60;;;;;;;;;;4989370;28;20525;-87
2021/11/01 13:24:10;;;;;;;16.92;7.53;;;;;;;;;;4973909;28;20029;-86
2021/11/01 13:27:02;;;;;;;13.95;6.95;;;;;;;;;;4987819;28;20150;-89
2021/11/01 13:37:55;;;;;;;12.88;5.93;;;;;;;;;;4987581;28;20173;-89
2021/11/01 13:40:21;;;;;;;9.07;5.00;;;;;;;;;;4987547;28;20374;-87
2021/11/01 13:42:54;;;;;;;12.85;5.95;;;;;;;;;;4975000;28;20053;-87
2021/11/01 13:45:21;;;;;;;10.18;4.97;;;;;;;;;;4976872;28;20062;-87
2021/11/01 13:47:48;;;;;;;8.60;5.05;;;;;;;;;;4979698;28;20050;-87
2021/11/01 13:50:16;;;;;;;11.07;4.53;;;;;;;;;;4975664;28;20031;-86
2021/11/01 13:52:43;;;;;;;11.38;4.72;;;;;;;;;;4977143;28;20113;-86
2021/11/01 13:55:17;;;;;;;8.63;4.25;;;;;;;;;;4975415;28;20045;-87
2021/11/01 13:57:53;;;;;;;9.52;4.70;;;;;;;;;;4991194;28;20034;-87
2021/11/01 14:00:30;;;;;;;9.18;4.40;;;;;;;;;;4976062;28;20426;-87
2021/11/01 14:03:07;;;;;;;10.00;3.63;;;;;;;;;;4972698;28;20030;-87
2021/11/01 14:16:30;;;;;;;8.52;3.40;;;;;;;;;;4998577;28;20455;-87
2021/11/01 14:29:47;;;;;;;4.50;2.42;;;;;;;;;;4988517;28;20045;-86
2021/11/01 14:32:41;;;;;;;6.50;2.70;;;;;;;;;;4990532;28;20121;-87
2021/11/01 14:35:25;;;;;;;3.40;1.85;;;;;;;;;;4984948;28;20031;-86
2021/11/01 14:56:46;;;;;;;5.18;2.25;;;;;;;;;;4995133;28;19917;-88
2021/11/01 15:25:34;;;;;;;3.70;1.90;;;;;;;;;;4896507;29;20036;-85
2021/11/01 15:31:08;;;;;;;2.35;1.30;;;;;;;;;;4942251;28;20037;-85
2021/11/01 15:39:20;;;;;;;2.25;1.40;;;;;;;;;;4969560;28;20074;-85
2021/11/01 16:19:32;;;;;;;4.18;2.40;;;;;;;;;;4972113;28;20285;-86
2021/11/01 16:22:17;;;;;;;4.68;1.95;;;;;;;;;;4987189;28;20665;-88
2021/11/01 16:24:44;;;;;;;4.60;2.15;;;;;;;;;;4967743;28;20447;-89
2021/11/01 16:27:13;;;;;;;6.22;2.40;;;;;;;;;;4975188;28;20047;-87
2021/11/01 16:29:49;;;;;;;5.20;2.45;;;;;;;;;;4970851;28;20022;-88
2021/11/01 16:32:20;;;;;;;9.65;4.38;;;;;;;;;;4968618;28;20054;-88
2021/11/01 16:34:48;;;;;;;6.55;2.80;;;;;;;;;;4981541;28;20476;-88
2021/11/01 16:37:26;;;;;;;6.93;3.75;;;;;;;;;;4983990;28;20034;-87
2021/11/01 16:39:52;;;;;;;8.95;3.90;;;;;;;;;;4964121;28;20023;-87
2021/11/01 16:42:19;;;;;;;8.15;3.25;;;;;;;;;;4969583;28;20030;-87
2021/11/01 16:44:46;;;;;;;5.47;2.53;;;;;;;;;;4975126;28;20480;-86
2021/11/01 16:47:13;;;;;;;6.93;3.13;;;;;;;;;;4988478;28;20049;-87
2021/11/01 16:49:40;;;;;;;4.90;2.45;;;;;;;;;;4974962;28;20034;-87
2021/11/01 16:52:14;;;;;;;4.22;2.75;;;;;;;;;;4992629;28;20375;-87
2021/11/01 16:54:42;;;;;;;7.40;2.67;;;;;;;;;;4973657;28;20065;-87
2021/11/01 16:57:17;;;;;;;4.45;2.88;;;;;;;;;;4989281;28;20031;-87
2021/11/01 17:00:12;;;;;;;4.30;2.15;;;;;;;;;;4971839;28;20084;-87
2021/11/01 17:02:46;;;;;;;5.18;2.28;;;;;;;;;;4990735;28;20082;-85
2021/11/01 17:05:22;;;;;;;6.57;3.08;;;;;;;;;;4973607;28;20113;-84
2021/11/01 17:08:22;;;;;;;4.28;2.67;;;;;;;;;;4971234;28;20426;-84
2021/11/01 17:11:07;;;;;;;8.93;3.00;;;;;;;;;;4972980;28;20081;-85
2021/11/01 17:21:50;;;;;;;6.63;3.30;;;;;;;;;;4974627;28;20565;-84
2021/11/01 17:24:32;;;;;;;6.50;3.45;;;;;;;;;;4973422;28;20031;-84
2021/11/01 17:27:11;;;;;;;8.18;4.43;;;;;;;;;;4969930;28;20041;-85
2021/11/01 18:38:56;;;;;;;3.58;2.20;;;;;;;;;;4991363;28;20505;-86
2021/11/01 18:41:35;;;;;;;4.00;2.28;;;;;;;;;;4986462;28;20036;-86
2021/11/01 18:44:31;;;;;;;3.40;2.05;;;;;;;;;;4991185;28;20022;-86
2021/11/01 18:52:12;;;;;;;4.22;1.88;;;;;;;;;;4987931;28;20391;-87
2021/11/01 18:54:39;;;;;;;4.18;2.50;;;;;;;;;;4983384;28;20027;-85
2021/11/01 18:57:06;;;;;;;4.10;2.35;;;;;;;;;;4985934;28;20035;-86
2021/11/01 18:59:36;;;;;;;6.60;2.28;;;;;;;;;;4979280;28;20034;-86
2021/11/01 19:04:56;;;;;;;3.97;2.30;;;;;;;;;;4984284;28;20106;-85
2021/11/01 19:08:09;;;;;;;5.00;2.20;;;;;;;;;;4986574;28;20356;-85
2021/11/01 19:16:24;;;;;;;6.45;3.15;;;;;;;;;;4983500;28;20045;-86
2021/11/01 20:05:44;;;;;;;3.58;2.40;;;;;;;;;;4989478;28;20525;-84
2021/11/01 20:08:20;;;;;;;4.88;2.38;;;;;;;;;;4982564;28;20038;-84
2021/11/01 20:13:41;;;;;;;2.85;1.80;;;;;;;;;;4988157;28;20035;-84
2021/11/01 21:25:14;;;;;;;6.10;2.50;;;;;;;;;;4993117;28;20046;-83
2021/11/01 21:27:40;;;;;;;5.60;2.70;;;;;;;;;;4970664;28;20050;-83
2021/11/01 21:30:07;;;;;;;6.70;3.03;;;;;;;;;;4977118;28;20101;-84
2021/11/01 21:32:33;;;;;;;9.73;2.50;;;;;;;;;;4978266;28;20030;-84
2021/11/01 21:35:02;;;;;;;5.60;2.10;;;;;;;;;;4976873;28;20029;-85
2021/11/01 21:37:28;;;;;;;5.28;2.47;;;;;;;;;;4974674;28;20030;-84
2021/11/01 21:39:56;;;;;;;4.32;2.60;;;;;;;;;;4991445;28;20034;-85
2021/11/01 21:42:22;;;;;;;6.57;2.60;;;;;;;;;;4987818;28;20026;-85
2021/11/01 21:44:49;;;;;;;5.47;2.58;;;;;;;;;;4977573;28;20502;-84
2021/11/01 21:47:15;;;;;;;5.43;2.88;;;;;;;;;;4978155;28;20049;-84
2021/11/01 21:49:41;;;;;;;5.18;3.15;;;;;;;;;;4992762;28;20034;-84
2021/11/01 21:52:07;;;;;;;5.22;2.45;;;;;;;;;;4985955;28;20030;-84
2021/11/01 21:54:42;;;;;;;5.10;2.80;;;;;;;;;;4981747;28;20118;-84
2021/11/01 21:57:27;;;;;;;4.28;2.33;;;;;;;;;;4988428;28;20027;-84
2021/11/01 22:00:11;;;;;;;7.47;3.03;;;;;;;;;;4990413;28;20026;-84
2021/11/01 22:16:46;;;;;;;7.40;2.92;;;;;;;;;;4989845;28;20593;-84
2021/11/01 22:19:44;;;;;;;4.30;2.53;;;;;;;;;;4986520;28;20031;-84
2021/11/01 22:22:38;;;;;;;6.13;2.50;;;;;;;;;;4969883;28;20076;-84
2021/11/01 22:25:16;;;;;;;7.47;2.80;;;;;;;;;;4975318;28;20478;-85
2021/11/01 22:41:26;;;;;;;4.90;2.53;;;;;;;;;;4988881;28;20036;-84
2021/11/01 22:44:22;;;;;;;6.10;2.97;;;;;;;;;;4986922;28;20466;-85
2021/11/01 22:46:58;;;;;;;7.03;2.67;;;;;;;;;;4991679;28;20042;-84
2021/11/01 22:57:38;;;;;;;5.30;2.95;;;;;;;;;;4982135;28;20093;-84
2021/11/01 23:00:17;;;;;;;4.88;2.90;;;;;;;;;;4975075;28;20033;-84
2021/11/01 23:02:43;;;;;;;5.00;2.75;;;;;;;;;;4982280;28;20026;-84
2021/11/01 23:05:27;;;;;;;5.93;2.90;;;;;;;;;;4986122;28;20093;-84
2021/11/01 23:32:34;;;;;;;4.75;2.42;;;;;;;;;;4988217;28;20100;-85
2021/11/01 23:35:00;;;;;;;5.10;2.67;;;;;;;;;;4973078;28;20034;-84
2021/11/01 23:37:26;;;;;;;7.07;2.55;;;;;;;;;;4989212;28;20030;-84
2021/11/01 23:39:52;;;;;;;6.82;2.65;;;;;;;;;;4990287;28;20065;-84
2021/11/01 23:42:18;;;;;;;6.00;2.80;;;;;;;;;;4975741;28;20459;-84
2021/11/01 23:44:43;;;;;;;6.45;3.13;;;;;;;;;;4973474;28;20085;-84
2021/11/01 23:47:09;;;;;;;6.65;2.72;;;;;;;;;;4990206;28;20030;-84
2021/11/01 23:49:35;;;;;;;6.78;3.22;;;;;;;;;;4991606;28;20375;-85
2021/11/01 23:52:09;;;;;;;6.43;2.83;;;;;;;;;;4982959;28;20035;-84
2021/11/01 23:54:43;;;;;;;5.50;3.03;;;;;;;;;;4987211;28;20058;-84
2021/11/01 23:57:09;;;;;;;5.47;2.47;;;;;;;;;;4997133;28;20374;-84
2021/11/01 23:59:35;;;;;;;6.63;3.00;;;;;;;;;;4984032;28;20030;-84
